sensor_id;sensor_type;location;lat;lon;timestamp;P1;durP1;ratioP1;P2;durP2;ratioP2
48871;SDS011;36154;51.674;7.824;2023-04-30T00:00:07;0.50;;;0.50;;
48871;SDS011;36154;51.674;7.824;2023-04-30T00:02:34;0.60;;;0.60;;
48871;SDS011;36154;51.674;7.824;2023-04-30T00:04:59;0.55;;;0.55;;
48871;SDS011;36154;51.674;7.824;2023-04-30T00:07:25;0.50;;;0.50;;
48871;SDS011;36154;51.674;7.824;2023-04-30T00:09:50;0.55;;;0.55;;
48871;SDS011;36154;51.674;7.824;2023-04-30T00:12:16;0.47;;;0.47;;
48871;SDS011;36154;51.674;7.824;2023-04-30T00:14:41;0.70;;;0.70;;
48871;SDS011;36154;51.674;7.824;2023-04-30T00:17:06;0.60;;;0.60;;
48871;SDS011;36154;51.674;7.824;2023-04-30T00:19:32;1.30;;;0.60;;
48871;SDS011;36154;51.674;7.824;2023-04-30T00:21:57;0.57;;;0.57;;
48871;SDS011;36154;51.674;7.824;2023-04-30T00:24:25;0.43;;;0.43;;
48871;SDS011;36154;51.674;7.824;2023-04-30T00:26:50;0.68;;;0.68;;
48871;SDS011;36154;51.674;7.824;2023-04-30T00:29:16;0.50;;;0.50;;
48871;SDS011;36154;51.674;7.824;2023-04-30T00:31:41;0.70;;;0.70;;
48871;SDS011;36154;51.674;7.824;2023-04-30T00:34:06;0.60;;;0.60;;
48871;SDS011;36154;51.674;7.824;2023-04-30T00:36:31;0.68;;;0.68;;
48871;SDS011;36154;51.674;7.824;2023-04-30T00:38:57;0.50;;;0.50;;
48871;SDS011;36154;51.674;7.824;2023-04-30T00:41:22;0.80;;;0.80;;
48871;SDS011;36154;51.674;7.824;2023-04-30T00:43:49;0.70;;;0.57;;
48871;SDS011;36154;51.674;7.824;2023-04-30T00:46:17;0.70;;;0.70;;
48871;SDS011;36154;51.674;7.824;2023-04-30T00:48:42;0.60;;;0.60;;
48871;SDS011;36154;51.674;7.824;2023-04-30T00:51:07;0.55;;;0.55;;
48871;SDS011;36154;51.674;7.824;2023-04-30T00:53:33;0.50;;;0.50;;
48871;SDS011;36154;51.674;7.824;2023-04-30T00:55:59;0.60;;;0.60;;
48871;SDS011;36154;51.674;7.824;2023-04-30T00:58:25;0.47;;;0.47;;
48871;SDS011;36154;51.674;7.824;2023-04-30T01:00:50;0.70;;;0.70;;
48871;SDS011;36154;51.674;7.824;2023-04-30T01:03:16;0.60;;;0.60;;
48871;SDS011;36154;51.674;7.824;2023-04-30T01:05:41;0.50;;;0.50;;
48871;SDS011;36154;51.674;7.824;2023-04-30T01:08:07;0.50;;;0.50;;
48871;SDS011;36154;51.674;7.824;2023-04-30T01:16:38;0.50;;;0.50;;
48871;SDS011;36154;51.674;7.824;2023-04-30T01:19:27;0.70;;;0.70;;
48871;SDS011;36154;51.674;7.824;2023-04-30T01:21:58;0.50;;;0.50;;
48871;SDS011;36154;51.674;7.824;2023-04-30T01:27:55;0.52;;;0.52;;
48871;SDS011;36154;51.674;7.824;2023-04-30T01:30:27;0.75;;;0.75;;
48871;SDS011;36154;51.674;7.824;2023-04-30T01:32:55;0.63;;;0.47;;
48871;SDS011;36154;51.674;7.824;2023-04-30T01:35:20;0.70;;;0.70;;
48871;SDS011;36154;51.674;7.824;2023-04-30T01:46:41;0.50;;;0.50;;
48871;SDS011;36154;51.674;7.824;2023-04-30T01:49:18;0.57;;;0.57;;
48871;SDS011;36154;51.674;7.824;2023-04-30T01:52:22;0.55;;;0.55;;
48871;SDS011;36154;51.674;7.824;2023-04-30T01:54:54;0.60;;;0.60;;
48871;SDS011;36154;51.674;7.824;2023-04-30T01:57:28;0.55;;;0.43;;
48871;SDS011;36154;51.674;7.824;2023-04-30T01:59:57;0.40;;;0.40;;
48871;SDS011;36154;51.674;7.824;2023-04-30T02:02:22;0.50;;;0.50;;
48871;SDS011;36154;51.674;7.824;2023-04-30T02:04:48;0.70;;;0.70;;
48871;SDS011;36154;51.674;7.824;2023-04-30T02:07:16;0.55;;;0.55;;
48871;SDS011;36154;51.674;7.824;2023-04-30T02:09:52;0.60;;;0.60;;
48871;SDS011;36154;51.674;7.824;2023-04-30T02:12:17;0.65;;;0.65;;
48871;SDS011;36154;51.674;7.824;2023-04-30T02:14:42;0.60;;;0.60;;
48871;SDS011;36154;51.674;7.824;2023-04-30T02:17:07;0.60;;;0.60;;
48871;SDS011;36154;51.674;7.824;2023-04-30T02:19:33;0.40;;;0.40;;
48871;SDS011;36154;51.674;7.824;2023-04-30T02:21:58;0.60;;;0.60;;
48871;SDS011;36154;51.674;7.824;2023-04-30T02:24:23;0.57;;;0.57;;
48871;SDS011;36154;51.674;7.824;2023-04-30T02:26:48;0.60;;;0.60;;
48871;SDS011;36154;51.674;7.824;2023-04-30T02:29:14;1.65;;;0.57;;
48871;SDS011;36154;51.674;7.824;2023-04-30T02:31:39;0.60;;;0.60;;
48871;SDS011;36154;51.674;7.824;2023-04-30T02:34:04;0.50;;;0.50;;
48871;SDS011;36154;51.674;7.824;2023-04-30T02:36:30;0.40;;;0.40;;
48871;SDS011;36154;51.674;7.824;2023-04-30T02:39:00;0.60;;;0.60;;
48871;SDS011;36154;51.674;7.824;2023-04-30T02:41:25;0.50;;;0.50;;
48871;SDS011;36154;51.674;7.824;2023-04-30T02:43:50;0.50;;;0.50;;
48871;SDS011;36154;51.674;7.824;2023-04-30T02:46:16;0.60;;;0.60;;
48871;SDS011;36154;51.674;7.824;2023-04-30T02:48:43;0.60;;;0.60;;
48871;SDS011;36154;51.674;7.824;2023-04-30T02:51:08;0.80;;;0.60;;
48871;SDS011;36154;51.674;7.824;2023-04-30T02:53:33;0.60;;;0.60;;
48871;SDS011;36154;51.674;7.824;2023-04-30T02:55:59;0.50;;;0.50;;
48871;SDS011;36154;51.674;7.824;2023-04-30T02:58:24;0.60;;;0.60;;
48871;SDS011;36154;51.674;7.824;2023-04-30T03:00:50;0.60;;;0.60;;
48871;SDS011;36154;51.674;7.824;2023-04-30T03:03:15;0.40;;;0.40;;
48871;SDS011;36154;51.674;7.824;2023-04-30T03:05:41;0.50;;;0.50;;
48871;SDS011;36154;51.674;7.824;2023-04-30T03:08:06;0.40;;;0.40;;
48871;SDS011;36154;51.674;7.824;2023-04-30T03:10:31;0.40;;;0.40;;
48871;SDS011;36154;51.674;7.824;2023-04-30T03:12:57;0.50;;;0.50;;
48871;SDS011;36154;51.674;7.824;2023-04-30T03:15:22;0.45;;;0.45;;
48871;SDS011;36154;51.674;7.824;2023-04-30T03:17:47;0.50;;;0.50;;
48871;SDS011;36154;51.674;7.824;2023-04-30T03:20:13;0.50;;;0.50;;
48871;SDS011;36154;51.674;7.824;2023-04-30T03:22:38;0.50;;;0.50;;
48871;SDS011;36154;51.674;7.824;2023-04-30T03:25:03;0.50;;;0.50;;
48871;SDS011;36154;51.674;7.824;2023-04-30T03:27:29;0.65;;;0.50;;
48871;SDS011;36154;51.674;7.824;2023-04-30T03:29:54;0.50;;;0.50;;
48871;SDS011;36154;51.674;7.824;2023-04-30T03:32:20;0.40;;;0.40;;
48871;SDS011;36154;51.674;7.824;2023-04-30T03:34:45;1.05;;;0.50;;
48871;SDS011;36154;51.674;7.824;2023-04-30T03:37:10;0.50;;;0.50;;
48871;SDS011;36154;51.674;7.824;2023-04-30T03:39:36;0.55;;;0.50;;
48871;SDS011;36154;51.674;7.824;2023-04-30T03:42:01;0.40;;;0.40;;
48871;SDS011;36154;51.674;7.824;2023-04-30T03:44:27;0.63;;;0.63;;
48871;SDS011;36154;51.674;7.824;2023-04-30T03:46:52;0.60;;;0.60;;
48871;SDS011;36154;51.674;7.824;2023-04-30T03:49:18;0.30;;;0.30;;
48871;SDS011;36154;51.674;7.824;2023-04-30T03:51:43;0.43;;;0.43;;
48871;SDS011;36154;51.674;7.824;2023-04-30T03:54:09;0.50;;;0.50;;
48871;SDS011;36154;51.674;7.824;2023-04-30T03:56:35;0.50;;;0.50;;
48871;SDS011;36154;51.674;7.824;2023-04-30T03:59:01;0.50;;;0.43;;
48871;SDS011;36154;51.674;7.824;2023-04-30T04:01:27;0.47;;;0.47;;
48871;SDS011;36154;51.674;7.824;2023-04-30T04:03:53;0.40;;;0.40;;
48871;SDS011;36154;51.674;7.824;2023-04-30T04:06:19;0.50;;;0.50;;
48871;SDS011;36154;51.674;7.824;2023-04-30T04:08:44;0.47;;;0.47;;
48871;SDS011;36154;51.674;7.824;2023-04-30T04:11:10;0.50;;;0.50;;
48871;SDS011;36154;51.674;7.824;2023-04-30T04:13:36;0.50;;;0.50;;
48871;SDS011;36154;51.674;7.824;2023-04-30T04:16:01;0.47;;;0.47;;
48871;SDS011;36154;51.674;7.824;2023-04-30T04:18:26;0.60;;;0.55;;
48871;SDS011;36154;51.674;7.824;2023-04-30T04:20:52;0.50;;;0.50;;
48871;SDS011;36154;51.674;7.824;2023-04-30T04:23:18;1.27;;;0.50;;
48871;SDS011;36154;51.674;7.824;2023-04-30T04:25:44;0.52;;;0.52;;
48871;SDS011;36154;51.674;7.824;2023-04-30T04:28:10;1.30;;;0.45;;
48871;SDS011;36154;51.674;7.824;2023-04-30T04:30:36;0.50;;;0.50;;
48871;SDS011;36154;51.674;7.824;2023-04-30T04:33:01;0.50;;;0.50;;
48871;SDS011;36154;51.674;7.824;2023-04-30T04:35:27;0.35;;;0.35;;
48871;SDS011;36154;51.674;7.824;2023-04-30T04:37:52;0.60;;;0.60;;
48871;SDS011;36154;51.674;7.824;2023-04-30T04:40:17;0.57;;;0.57;;
48871;SDS011;36154;51.674;7.824;2023-04-30T04:42:42;0.45;;;0.45;;
48871;SDS011;36154;51.674;7.824;2023-04-30T04:45:08;0.50;;;0.50;;
48871;SDS011;36154;51.674;7.824;2023-04-30T04:47:33;0.63;;;0.60;;
48871;SDS011;36154;51.674;7.824;2023-04-30T04:49:59;0.50;;;0.50;;
48871;SDS011;36154;51.674;7.824;2023-04-30T04:52:24;0.52;;;0.43;;
48871;SDS011;36154;51.674;7.824;2023-04-30T04:54:50;0.60;;;0.60;;
48871;SDS011;36154;51.674;7.824;2023-04-30T04:57:15;2.05;;;0.88;;
48871;SDS011;36154;51.674;7.824;2023-04-30T04:59:40;2.38;;;1.20;;
48871;SDS011;36154;51.674;7.824;2023-04-30T05:02:08;22.90;;;4.05;;
48871;SDS011;36154;51.674;7.824;2023-04-30T05:04:34;26.70;;;4.80;;
48871;SDS011;36154;51.674;7.824;2023-04-30T05:06:59;16.67;;;4.38;;
48871;SDS011;36154;51.674;7.824;2023-04-30T05:09:24;18.52;;;4.28;;
48871;SDS011;36154;51.674;7.824;2023-04-30T05:11:49;10.27;;;3.53;;
48871;SDS011;36154;51.674;7.824;2023-04-30T05:14:15;15.20;;;3.60;;
48871;SDS011;36154;51.674;7.824;2023-04-30T05:16:40;15.25;;;4.43;;
48871;SDS011;36154;51.674;7.824;2023-04-30T05:19:05;19.88;;;4.00;;
48871;SDS011;36154;51.674;7.824;2023-04-30T05:21:33;13.52;;;4.07;;
48871;SDS011;36154;51.674;7.824;2023-04-30T05:23:59;11.15;;;3.65;;
48871;SDS011;36154;51.674;7.824;2023-04-30T05:26:24;18.00;;;4.18;;
48871;SDS011;36154;51.674;7.824;2023-04-30T05:28:49;11.93;;;3.75;;
48871;SDS011;36154;51.674;7.824;2023-04-30T05:31:16;13.82;;;3.92;;
48871;SDS011;36154;51.674;7.824;2023-04-30T05:33:41;10.50;;;3.70;;
48871;SDS011;36154;51.674;7.824;2023-04-30T05:36:07;17.85;;;4.65;;
48871;SDS011;36154;51.674;7.824;2023-04-30T05:38:32;12.68;;;4.07;;
48871;SDS011;36154;51.674;7.824;2023-04-30T05:40:57;11.38;;;3.50;;
48871;SDS011;36154;51.674;7.824;2023-04-30T05:43:22;12.38;;;3.50;;
48871;SDS011;36154;51.674;7.824;2023-04-30T05:45:48;9.65;;;4.07;;
48871;SDS011;36154;51.674;7.824;2023-04-30T05:48:13;10.95;;;4.05;;
48871;SDS011;36154;51.674;7.824;2023-04-30T05:50:38;11.30;;;4.13;;
48871;SDS011;36154;51.674;7.824;2023-04-30T05:53:03;12.70;;;4.15;;
48871;SDS011;36154;51.674;7.824;2023-04-30T05:55:29;13.52;;;4.07;;
48871;SDS011;36154;51.674;7.824;2023-04-30T05:57:55;8.23;;;3.28;;
48871;SDS011;36154;51.674;7.824;2023-04-30T06:00:22;13.73;;;3.28;;
48871;SDS011;36154;51.674;7.824;2023-04-30T06:02:48;11.70;;;2.70;;
48871;SDS011;36154;51.674;7.824;2023-04-30T06:05:13;10.70;;;2.38;;
48871;SDS011;36154;51.674;7.824;2023-04-30T06:07:38;3.80;;;1.88;;
48871;SDS011;36154;51.674;7.824;2023-04-30T06:10:04;4.97;;;1.65;;
48871;SDS011;36154;51.674;7.824;2023-04-30T06:12:30;6.70;;;1.38;;
48871;SDS011;36154;51.674;7.824;2023-04-30T06:14:55;5.35;;;1.60;;
48871;SDS011;36154;51.674;7.824;2023-04-30T06:17:21;3.47;;;1.25;;
48871;SDS011;36154;51.674;7.824;2023-04-30T06:19:46;1.63;;;0.98;;
48871;SDS011;36154;51.674;7.824;2023-04-30T06:22:12;1.90;;;1.00;;
48871;SDS011;36154;51.674;7.824;2023-04-30T06:24:37;1.48;;;0.60;;
48871;SDS011;36154;51.674;7.824;2023-04-30T06:27:02;2.88;;;0.98;;
48871;SDS011;36154;51.674;7.824;2023-04-30T06:29:28;1.20;;;0.77;;
48871;SDS011;36154;51.674;7.824;2023-04-30T06:31:53;1.85;;;0.88;;
48871;SDS011;36154;51.674;7.824;2023-04-30T06:34:18;0.70;;;0.70;;
48871;SDS011;36154;51.674;7.824;2023-04-30T06:36:44;1.15;;;0.73;;
48871;SDS011;36154;51.674;7.824;2023-04-30T06:39:12;0.70;;;0.70;;
48871;SDS011;36154;51.674;7.824;2023-04-30T06:41:39;1.40;;;0.60;;
48871;SDS011;36154;51.674;7.824;2023-04-30T06:44:04;1.58;;;0.80;;
48871;SDS011;36154;51.674;7.824;2023-04-30T06:46:30;0.57;;;0.50;;
48871;SDS011;36154;51.674;7.824;2023-04-30T06:48:55;0.60;;;0.50;;
48871;SDS011;36154;51.674;7.824;2023-04-30T06:51:20;1.00;;;0.50;;
48871;SDS011;36154;51.674;7.824;2023-04-30T06:53:46;0.63;;;0.40;;
48871;SDS011;36154;51.674;7.824;2023-04-30T06:56:11;0.50;;;0.50;;
48871;SDS011;36154;51.674;7.824;2023-04-30T06:58:37;0.60;;;0.40;;
48871;SDS011;36154;51.674;7.824;2023-04-30T07:01:02;0.40;;;0.40;;
48871;SDS011;36154;51.674;7.824;2023-04-30T07:03:27;1.10;;;0.70;;
48871;SDS011;36154;51.674;7.824;2023-04-30T07:05:53;0.30;;;0.30;;
48871;SDS011;36154;51.674;7.824;2023-04-30T07:08:18;1.02;;;0.50;;
48871;SDS011;36154;51.674;7.824;2023-04-30T07:10:43;0.55;;;0.30;;
48871;SDS011;36154;51.674;7.824;2023-04-30T07:13:09;1.05;;;0.50;;
48871;SDS011;36154;51.674;7.824;2023-04-30T07:15:34;0.40;;;0.30;;
48871;SDS011;36154;51.674;7.824;2023-04-30T07:17:59;0.93;;;0.35;;
48871;SDS011;36154;51.674;7.824;2023-04-30T07:20:25;1.35;;;0.40;;
48871;SDS011;36154;51.674;7.824;2023-04-30T07:22:52;0.63;;;0.40;;
48871;SDS011;36154;51.674;7.824;2023-04-30T07:25:19;0.40;;;0.40;;
48871;SDS011;36154;51.674;7.824;2023-04-30T07:27:44;0.40;;;0.40;;
48871;SDS011;36154;51.674;7.824;2023-04-30T07:30:10;0.40;;;0.30;;
48871;SDS011;36154;51.674;7.824;2023-04-30T07:32:36;0.43;;;0.32;;
48871;SDS011;36154;51.674;7.824;2023-04-30T07:35:02;0.60;;;0.30;;
48871;SDS011;36154;51.674;7.824;2023-04-30T07:37:28;0.35;;;0.35;;
48871;SDS011;36154;51.674;7.824;2023-04-30T07:39:53;0.75;;;0.32;;
48871;SDS011;36154;51.674;7.824;2023-04-30T07:42:18;0.88;;;0.30;;
48871;SDS011;36154;51.674;7.824;2023-04-30T07:44:44;0.77;;;0.60;;
48871;SDS011;36154;51.674;7.824;2023-04-30T07:47:10;0.30;;;0.30;;
48871;SDS011;36154;51.674;7.824;2023-04-30T07:49:35;0.35;;;0.35;;
48871;SDS011;36154;51.674;7.824;2023-04-30T07:52:01;0.30;;;0.30;;
48871;SDS011;36154;51.674;7.824;2023-04-30T07:54:26;0.32;;;0.28;;
48871;SDS011;36154;51.674;7.824;2023-04-30T07:56:52;0.30;;;0.30;;
48871;SDS011;36154;51.674;7.824;2023-04-30T07:59:17;0.30;;;0.30;;
48871;SDS011;36154;51.674;7.824;2023-04-30T08:01:42;0.22;;;0.22;;
48871;SDS011;36154;51.674;7.824;2023-04-30T08:04:08;0.32;;;0.30;;
48871;SDS011;36154;51.674;7.824;2023-04-30T08:06:33;0.43;;;0.30;;
48871;SDS011;36154;51.674;7.824;2023-04-30T08:08:59;0.30;;;0.30;;
48871;SDS011;36154;51.674;7.824;2023-04-30T08:11:24;0.30;;;0.20;;
48871;SDS011;36154;51.674;7.824;2023-04-30T08:13:49;0.28;;;0.20;;
48871;SDS011;36154;51.674;7.824;2023-04-30T08:16:15;0.30;;;0.30;;
48871;SDS011;36154;51.674;7.824;2023-04-30T08:18:41;0.20;;;0.20;;
48871;SDS011;36154;51.674;7.824;2023-04-30T08:21:08;1.13;;;0.20;;
48871;SDS011;36154;51.674;7.824;2023-04-30T08:23:35;0.20;;;0.20;;
48871;SDS011;36154;51.674;7.824;2023-04-30T08:26:00;0.40;;;0.30;;
48871;SDS011;36154;51.674;7.824;2023-04-30T08:28:26;0.30;;;0.30;;
48871;SDS011;36154;51.674;7.824;2023-04-30T08:30:51;0.68;;;0.30;;
48871;SDS011;36154;51.674;7.824;2023-04-30T08:33:16;0.20;;;0.20;;
48871;SDS011;36154;51.674;7.824;2023-04-30T08:35:41;0.30;;;0.30;;
48871;SDS011;36154;51.674;7.824;2023-04-30T08:38:07;0.17;;;0.17;;
48871;SDS011;36154;51.674;7.824;2023-04-30T08:40:33;0.40;;;0.20;;
48871;SDS011;36154;51.674;7.824;2023-04-30T08:43:04;0.20;;;0.20;;
48871;SDS011;36154;51.674;7.824;2023-04-30T08:45:31;0.10;;;0.10;;
48871;SDS011;36154;51.674;7.824;2023-04-30T08:47:58;0.20;;;0.20;;
48871;SDS011;36154;51.674;7.824;2023-04-30T08:50:24;0.22;;;0.20;;
48871;SDS011;36154;51.674;7.824;2023-04-30T08:52:50;0.10;;;0.10;;
48871;SDS011;36154;51.674;7.824;2023-04-30T08:55:15;0.47;;;0.20;;
48871;SDS011;36154;51.674;7.824;2023-04-30T08:57:41;0.10;;;0.10;;
48871;SDS011;36154;51.674;7.824;2023-04-30T09:00:06;0.20;;;0.20;;
48871;SDS011;36154;51.674;7.824;2023-04-30T09:02:32;0.10;;;0.10;;
48871;SDS011;36154;51.674;7.824;2023-04-30T09:04:58;0.20;;;0.20;;
48871;SDS011;36154;51.674;7.824;2023-04-30T09:07:26;0.20;;;0.20;;
48871;SDS011;36154;51.674;7.824;2023-04-30T09:09:53;0.10;;;0.10;;
48871;SDS011;36154;51.674;7.824;2023-04-30T09:12:18;0.17;;;0.17;;
48871;SDS011;36154;51.674;7.824;2023-04-30T09:17:29;0.10;;;0.10;;
48871;SDS011;36154;51.674;7.824;2023-04-30T09:20:08;0.20;;;0.20;;
48871;SDS011;36154;51.674;7.824;2023-04-30T09:22:35;0.10;;;0.10;;
48871;SDS011;36154;51.674;7.824;2023-04-30T09:25:01;0.20;;;0.20;;
48871;SDS011;36154;51.674;7.824;2023-04-30T09:27:27;0.10;;;0.10;;
48871;SDS011;36154;51.674;7.824;2023-04-30T09:29:52;0.10;;;0.10;;
48871;SDS011;36154;51.674;7.824;2023-04-30T09:32:17;0.15;;;0.15;;
48871;SDS011;36154;51.674;7.824;2023-04-30T09:34:43;0.10;;;0.10;;
48871;SDS011;36154;51.674;7.824;2023-04-30T09:37:08;0.10;;;0.10;;
48871;SDS011;36154;51.674;7.824;2023-04-30T09:39:45;0.10;;;0.10;;
48871;SDS011;36154;51.674;7.824;2023-04-30T09:42:14;0.10;;;0.10;;
48871;SDS011;36154;51.674;7.824;2023-04-30T09:44:40;0.10;;;0.10;;
48871;SDS011;36154;51.674;7.824;2023-04-30T09:47:13;0.10;;;0.10;;
48871;SDS011;36154;51.674;7.824;2023-04-30T09:49:43;0.20;;;0.20;;
48871;SDS011;36154;51.674;7.824;2023-04-30T09:52:13;0.85;;;0.10;;
48871;SDS011;36154;51.674;7.824;2023-04-30T09:54:39;0.10;;;0.10;;
48871;SDS011;36154;51.674;7.824;2023-04-30T09:57:05;0.30;;;0.10;;
48871;SDS011;36154;51.674;7.824;2023-04-30T09:59:37;0.10;;;0.10;;
48871;SDS011;36154;51.674;7.824;2023-04-30T10:04:39;0.10;;;0.10;;
48871;SDS011;36154;51.674;7.824;2023-04-30T10:07:16;0.35;;;0.20;;
48871;SDS011;36154;51.674;7.824;2023-04-30T10:09:47;0.10;;;0.10;;
48871;SDS011;36154;51.674;7.824;2023-04-30T10:12:15;0.10;;;0.10;;
48871;SDS011;36154;51.674;7.824;2023-04-30T10:14:47;0.10;;;0.10;;
48871;SDS011;36154;51.674;7.824;2023-04-30T10:17:18;0.10;;;0.10;;
48871;SDS011;36154;51.674;7.824;2023-04-30T10:19:48;0.10;;;0.10;;
48871;SDS011;36154;51.674;7.824;2023-04-30T10:22:18;0.10;;;0.10;;
48871;SDS011;36154;51.674;7.824;2023-04-30T10:24:44;0.10;;;0.10;;
48871;SDS011;36154;51.674;7.824;2023-04-30T10:27:11;0.10;;;0.10;;
48871;SDS011;36154;51.674;7.824;2023-04-30T10:29:36;0.10;;;0.10;;
48871;SDS011;36154;51.674;7.824;2023-04-30T10:32:01;0.13;;;0.10;;
48871;SDS011;36154;51.674;7.824;2023-04-30T10:34:35;0.10;;;0.10;;
48871;SDS011;36154;51.674;7.824;2023-04-30T10:37:52;0.10;;;0.10;;
48871;SDS011;36154;51.674;7.824;2023-04-30T10:39:58;0.10;;;0.10;;
48871;SDS011;36154;51.674;7.824;2023-04-30T10:42:23;0.13;;;0.10;;
48871;SDS011;36154;51.674;7.824;2023-04-30T10:44:49;0.10;;;0.10;;
48871;SDS011;36154;51.674;7.824;2023-04-30T10:47:15;0.10;;;0.10;;
48871;SDS011;36154;51.674;7.824;2023-04-30T10:49:44;0.10;;;0.10;;
48871;SDS011;36154;51.674;7.824;2023-04-30T10:52:12;0.10;;;0.10;;
48871;SDS011;36154;51.674;7.824;2023-04-30T10:54:37;0.10;;;0.10;;
48871;SDS011;36154;51.674;7.824;2023-04-30T10:57:13;0.10;;;0.10;;
48871;SDS011;36154;51.674;7.824;2023-04-30T10:59:49;0.20;;;0.20;;
48871;SDS011;36154;51.674;7.824;2023-04-30T11:02:17;0.20;;;0.20;;
48871;SDS011;36154;51.674;7.824;2023-04-30T11:07:32;0.25;;;0.20;;
48871;SDS011;36154;51.674;7.824;2023-04-30T11:09:59;0.10;;;0.10;;
48871;SDS011;36154;51.674;7.824;2023-04-30T11:12:26;0.10;;;0.10;;
48871;SDS011;36154;51.674;7.824;2023-04-30T11:14:55;0.10;;;0.10;;
48871;SDS011;36154;51.674;7.824;2023-04-30T11:17:25;0.20;;;0.20;;
48871;SDS011;36154;51.674;7.824;2023-04-30T11:19:51;0.10;;;0.10;;
48871;SDS011;36154;51.674;7.824;2023-04-30T11:22:21;0.13;;;0.10;;
48871;SDS011;36154;51.674;7.824;2023-04-30T11:27:23;0.20;;;0.20;;
48871;SDS011;36154;51.674;7.824;2023-04-30T11:29:49;0.30;;;0.10;;
48871;SDS011;36154;51.674;7.824;2023-04-30T11:32:17;0.10;;;0.10;;
48871;SDS011;36154;51.674;7.824;2023-04-30T11:34:43;0.10;;;0.10;;
48871;SDS011;36154;51.674;7.824;2023-04-30T11:37:10;0.10;;;0.10;;
48871;SDS011;36154;51.674;7.824;2023-04-30T11:39:40;0.10;;;0.10;;
48871;SDS011;36154;51.674;7.824;2023-04-30T11:42:06;0.10;;;0.10;;
48871;SDS011;36154;51.674;7.824;2023-04-30T11:44:32;0.13;;;0.13;;
48871;SDS011;36154;51.674;7.824;2023-04-30T11:46:58;0.10;;;0.10;;
48871;SDS011;36154;51.674;7.824;2023-04-30T11:49:24;0.20;;;0.20;;
48871;SDS011;36154;51.674;7.824;2023-04-30T11:51:50;0.10;;;0.10;;
48871;SDS011;36154;51.674;7.824;2023-04-30T11:54:17;0.10;;;0.10;;
48871;SDS011;36154;51.674;7.824;2023-04-30T11:56:46;0.10;;;0.10;;
48871;SDS011;36154;51.674;7.824;2023-04-30T11:59:12;0.10;;;0.10;;
48871;SDS011;36154;51.674;7.824;2023-04-30T12:01:39;0.10;;;0.10;;
48871;SDS011;36154;51.674;7.824;2023-04-30T12:04:05;0.40;;;0.10;;
48871;SDS011;36154;51.674;7.824;2023-04-30T12:06:31;0.10;;;0.10;;
48871;SDS011;36154;51.674;7.824;2023-04-30T12:09:00;0.47;;;0.10;;
48871;SDS011;36154;51.674;7.824;2023-04-30T12:11:28;0.10;;;0.10;;
48871;SDS011;36154;51.674;7.824;2023-04-30T12:16:23;0.10;;;0.10;;
48871;SDS011;36154;51.674;7.824;2023-04-30T12:18:49;0.10;;;0.10;;
48871;SDS011;36154;51.674;7.824;2023-04-30T12:21:15;0.15;;;0.10;;
48871;SDS011;36154;51.674;7.824;2023-04-30T12:23:41;0.15;;;0.15;;
48871;SDS011;36154;51.674;7.824;2023-04-30T12:26:09;0.10;;;0.10;;
48871;SDS011;36154;51.674;7.824;2023-04-30T12:28:34;0.20;;;0.20;;
48871;SDS011;36154;51.674;7.824;2023-04-30T12:31:00;0.20;;;0.20;;
48871;SDS011;36154;51.674;7.824;2023-04-30T12:33:28;0.15;;;0.10;;
48871;SDS011;36154;51.674;7.824;2023-04-30T12:35:55;0.10;;;0.10;;
48871;SDS011;36154;51.674;7.824;2023-04-30T12:38:22;0.10;;;0.10;;
48871;SDS011;36154;51.674;7.824;2023-04-30T12:40:47;0.10;;;0.10;;
48871;SDS011;36154;51.674;7.824;2023-04-30T12:43:14;0.20;;;0.10;;
48871;SDS011;36154;51.674;7.824;2023-04-30T12:45:50;0.75;;;0.17;;
48871;SDS011;36154;51.674;7.824;2023-04-30T12:48:18;0.10;;;0.10;;
48871;SDS011;36154;51.674;7.824;2023-04-30T12:50:53;0.10;;;0.10;;
48871;SDS011;36154;51.674;7.824;2023-04-30T12:53:26;0.20;;;0.10;;
48871;SDS011;36154;51.674;7.824;2023-04-30T12:56:07;0.20;;;0.13;;
48871;SDS011;36154;51.674;7.824;2023-04-30T12:58:43;0.13;;;0.13;;
48871;SDS011;36154;51.674;7.824;2023-04-30T13:01:11;0.10;;;0.10;;
48871;SDS011;36154;51.674;7.824;2023-04-30T13:03:37;0.20;;;0.20;;
48871;SDS011;36154;51.674;7.824;2023-04-30T13:06:04;0.10;;;0.10;;
48871;SDS011;36154;51.674;7.824;2023-04-30T13:08:30;0.10;;;0.10;;
48871;SDS011;36154;51.674;7.824;2023-04-30T13:10:56;0.10;;;0.10;;
48871;SDS011;36154;51.674;7.824;2023-04-30T13:13:21;0.30;;;0.10;;
48871;SDS011;36154;51.674;7.824;2023-04-30T13:15:46;0.10;;;0.10;;
48871;SDS011;36154;51.674;7.824;2023-04-30T13:18:12;0.10;;;0.10;;
48871;SDS011;36154;51.674;7.824;2023-04-30T13:20:39;0.45;;;0.10;;
48871;SDS011;36154;51.674;7.824;2023-04-30T13:23:05;0.10;;;0.10;;
48871;SDS011;36154;51.674;7.824;2023-04-30T13:25:34;0.10;;;0.10;;
48871;SDS011;36154;51.674;7.824;2023-04-30T13:28:00;0.55;;;0.13;;
48871;SDS011;36154;51.674;7.824;2023-04-30T13:30:26;0.10;;;0.10;;
48871;SDS011;36154;51.674;7.824;2023-04-30T13:32:52;0.10;;;0.10;;
48871;SDS011;36154;51.674;7.824;2023-04-30T13:35:18;0.10;;;0.10;;
48871;SDS011;36154;51.674;7.824;2023-04-30T13:37:44;0.52;;;0.10;;
48871;SDS011;36154;51.674;7.824;2023-04-30T13:40:09;0.10;;;0.10;;
48871;SDS011;36154;51.674;7.824;2023-04-30T13:42:35;0.10;;;0.10;;
48871;SDS011;36154;51.674;7.824;2023-04-30T13:45:02;0.10;;;0.10;;
48871;SDS011;36154;51.674;7.824;2023-04-30T13:47:28;0.15;;;0.10;;
48871;SDS011;36154;51.674;7.824;2023-04-30T13:49:54;0.17;;;0.17;;
48871;SDS011;36154;51.674;7.824;2023-04-30T13:52:19;0.10;;;0.10;;
48871;SDS011;36154;51.674;7.824;2023-04-30T13:54:44;0.10;;;0.10;;
48871;SDS011;36154;51.674;7.824;2023-04-30T13:57:10;0.20;;;0.20;;
48871;SDS011;36154;51.674;7.824;2023-04-30T13:59:35;0.10;;;0.10;;
48871;SDS011;36154;51.674;7.824;2023-04-30T14:02:00;0.47;;;0.10;;
48871;SDS011;36154;51.674;7.824;2023-04-30T14:04:26;0.35;;;0.10;;
48871;SDS011;36154;51.674;7.824;2023-04-30T14:06:51;0.10;;;0.10;;
48871;SDS011;36154;51.674;7.824;2023-04-30T14:09:20;0.08;;;0.08;;
48871;SDS011;36154;51.674;7.824;2023-04-30T14:11:46;0.05;;;0.05;;
48871;SDS011;36154;51.674;7.824;2023-04-30T14:14:11;0.10;;;0.10;;
48871;SDS011;36154;51.674;7.824;2023-04-30T14:16:36;0.10;;;0.10;;
48871;SDS011;36154;51.674;7.824;2023-04-30T14:19:02;0.10;;;0.10;;
48871;SDS011;36154;51.674;7.824;2023-04-30T14:21:27;0.00;;;0.00;;
48871;SDS011;36154;51.674;7.824;2023-04-30T14:23:53;0.17;;;0.10;;
48871;SDS011;36154;51.674;7.824;2023-04-30T14:26:19;0.30;;;0.10;;
48871;SDS011;36154;51.674;7.824;2023-04-30T14:28:45;0.10;;;0.10;;
48871;SDS011;36154;51.674;7.824;2023-04-30T14:31:11;0.10;;;0.10;;
48871;SDS011;36154;51.674;7.824;2023-04-30T14:33:36;0.43;;;0.20;;
48871;SDS011;36154;51.674;7.824;2023-04-30T14:36:02;0.00;;;0.00;;
48871;SDS011;36154;51.674;7.824;2023-04-30T14:38:27;0.10;;;0.10;;
48871;SDS011;36154;51.674;7.824;2023-04-30T14:40:52;0.00;;;0.00;;
48871;SDS011;36154;51.674;7.824;2023-04-30T14:43:18;0.20;;;0.10;;
48871;SDS011;36154;51.674;7.824;2023-04-30T14:45:43;0.10;;;0.10;;
48871;SDS011;36154;51.674;7.824;2023-04-30T14:48:09;0.05;;;0.05;;
48871;SDS011;36154;51.674;7.824;2023-04-30T14:50:38;0.05;;;0.05;;
48871;SDS011;36154;51.674;7.824;2023-04-30T14:53:04;0.28;;;0.15;;
48871;SDS011;36154;51.674;7.824;2023-04-30T14:55:30;0.05;;;0.05;;
48871;SDS011;36154;51.674;7.824;2023-04-30T14:57:56;0.10;;;0.10;;
48871;SDS011;36154;51.674;7.824;2023-04-30T15:00:21;0.10;;;0.10;;
48871;SDS011;36154;51.674;7.824;2023-04-30T15:02:46;0.10;;;0.10;;
48871;SDS011;36154;51.674;7.824;2023-04-30T15:05:12;0.10;;;0.10;;
48871;SDS011;36154;51.674;7.824;2023-04-30T15:07:37;0.20;;;0.20;;
48871;SDS011;36154;51.674;7.824;2023-04-30T15:10:03;0.10;;;0.10;;
48871;SDS011;36154;51.674;7.824;2023-04-30T15:12:29;0.10;;;0.10;;
48871;SDS011;36154;51.674;7.824;2023-04-30T15:14:55;0.10;;;0.10;;